ADDS METAR Data INFO
IDs: Format: Raw Decoded Include TAF

Data at: 0350 UTC 17 Oct 2017

KFST 170253Z AUTO 17006KT 10SM CLR 12/06 A3033 RMK AO2 SLP246 T01220056 53002
KFST 170153Z AUTO 12005KT 10SM CLR 14/04 A3033 RMK AO2 SLP245 T01440044
KFST 170053Z AUTO 08006KT 10SM CLR 15/06 A3033 RMK AO2 SLP246 T01500061
KFST 162353Z AUTO 07003KT 10SM CLR 19/04 A3032 RMK AO2 SLP243 T01890039 10200 20161 56009
KFST 162253Z AUTO 10007KT 10SM CLR 19/02 A3033 RMK AO2 SLP243 T01940017
KFST 162153Z AUTO 00000KT 10SM CLR 19/00 A3034 RMK AO2 SLP247 T01940000
KFST 162053Z AUTO 10005KT 10SM CLR 19/02 A3035 RMK AO2 SLP251 T01890017 56035
KFST 161953Z AUTO 08006KT 10SM CLR 18/04 A3038 RMK AO2 SLP262 T01830039
KFST 161853Z AUTO 11007KT 10SM CLR 17/04 A3043 RMK AO2 SLP278 T01720039
KFST 161753Z AUTO 05006KT 10SM CLR 16/02 A3047 RMK AO2 SLP292 T01610022 10161 20067 58007
KFST 161653Z AUTO 11009G15KT 10SM CLR 15/02 A3048 RMK AO2 SLP298 T01500017
KFST 161553Z AUTO 08008KT 10SM CLR 14/04 A3049 RMK AO2 SLP301 T01440044
KFST 161453Z AUTO 14003KT 10SM CLR 12/07 A3049 RMK AO2 SLP302 T01220067 53010
KFST 161353Z AUTO 00000KT 10SM CLR 09/07 A3048 RMK AO2 SLP301 T00940067
KFST 161253Z AUTO 18004KT 10SM CLR 08/06 A3047 RMK AO2 SLP297 T00780056
KFST 161153Z AUTO 18004KT 10SM CLR 08/06 A3046 RMK AO2 SLP293 70086 T00780056 10106 20072 53003 $
KFST 161053Z AUTO 18004KT 10SM CLR 08/06 A3044 RMK AO2 SLP288 T00780061 $
KFST 160953Z AUTO 00000KT 10SM CLR 08/06 A3044 RMK AO2 SLP287 T00780061 $
KFST 160853Z AUTO 22007KT 10SM CLR 09/07 A3045 RMK AO2 SLP290 T00940067 56004 $
KFST 160753Z AUTO 22008KT 10SM CLR 09/07 A3045 RMK AO2 SLP291 T00940072 $
KFST 160653Z AUTO 22007KT 10SM CLR 10/07 A3045 RMK AO2 SLP292 T01000072 $
KFST 160553Z AUTO 22008KT 10SM CLR 11/07 A3046 RMK AO2 SLP294 T01060072 10128 20106 402220078 50003 $
KFST 160453Z AUTO 22008KT 10SM CLR 11/08 A3047 RMK AO2 SLP297 T01060078 $
KFST 160353Z AUTO 22009KT 10SM CLR 11/08 A3046 RMK AO2 SLP295 T01110083 $
KFST 160253Z AUTO 23009KT 10SM CLR 12/08 A3045 RMK AO2 SLP292 T01170078 51016 $
KFST 160153Z AUTO 23007KT 10SM FEW110 12/08 A3044 RMK AO2 SLP287 T01170078 $
KFST 160053Z AUTO 26008KT 10SM CLR 12/08 A3042 RMK AO2 SLP279 T01220083 $
KFST 152353Z AUTO 22005KT 10SM CLR 13/07 A3040 RMK AO2 SLP270 60000 T01280072 10128 20100 56009 $
KFST 152253Z AUTO 26006KT 10SM CLR 13/06 A3041 RMK AO2 SLP270 T01280056 $
KFST 152153Z AUTO 29010KT 10SM CLR 12/07 A3042 RMK AO2 SLP270 T01220072 $
KFST 152053Z AUTO 26007KT 10SM FEW110 11/09 A3043 RMK AO2 SLP275 60000 T01110089 56022 $
KFST 152012Z AUTO 24010KT 10SM OVC030 10/08 A3044 RMK AO2 T01000083 $
KFST 151953Z AUTO 29008KT 10SM BKN029 OVC110 12/07 A3045 RMK AO2 RAB11E28 SLP278 P0000 T01220067 $
KFST 151924Z AUTO 25006KT 10SM -RA OVC029 11/08 A3046 RMK AO2 RAB11 P0000 T01060078 $
KFST 151853Z AUTO 28005KT 10SM OVC032 11/07 A3048 RMK AO2 RAB43E51 SLP291 P0000 T01110072 $
KFST 151840Z AUTO 29006KT 10SM OVC032 11/07 A3049 RMK AO2 T01110067 $
KFST 151825Z AUTO 28005KT 10SM VCTS OVC034 11/07 A3049 RMK AO2 LTG DSNT S T01110067 $
KFST 151753Z AUTO 34005KT 10SM OVC034 11/07 A3050 RMK AO2 LTG DSNT SW RAE10 SLP298 P0000 60086 T01060072 10117 20078 50003 $
KFST 151653Z AUTO 06006KT 10SM -RA OVC031 09/07 A3051 RMK AO2 RAB33 SLP304 P0001 T00940067 $
KFST 151553Z AUTO 35009KT 10SM OVC027 08/07 A3052 RMK AO2 RAE46 SLP305 P0000 T00830072 $